Time;durP1;ratioP1;P1;durP2;ratioP2;P2;SDS_P1;SDS_P2;PMS_P1;PMS_P2;Temp;Humidity;BMP_temperature;BMP_pressure;BME280_temperature;BME280_humidity;BME280_pressure;Samples;Min_cycle;Max_cycle;Signal;HPM_P1;HPM_P2
2022/01/29 00:01:27;;;;;;;15.68;12.25;;;;;;;19.12;29.37;94794.53;5099013;27;96816;-62
2022/01/29 00:03:52;;;;;;;13.70;11.45;;;;;;;19.19;29.80;94796.50;5098050;27;99344;-66
2022/01/29 00:06:18;;;;;;;15.80;9.40;;;;;;;19.24;29.91;94788.69;5098190;27;99328;-64
2022/01/29 00:08:43;;;;;;;11.82;8.30;;;;;;;19.24;29.37;94790.66;5099083;27;96637;-63
2022/01/29 00:11:13;;;;;;;221.52;141.32;;;;;;;19.19;31.84;94800.00;5099426;27;97988;-62
2022/01/29 00:13:38;;;;;;;501.25;405.27;;;;;;;19.10;31.38;94799.63;5097080;27;99494;-62
2022/01/29 00:16:04;;;;;;;201.32;159.43;;;;;;;18.98;31.33;94797.22;5097252;27;99415;-64
2022/01/29 00:18:29;;;;;;;70.80;63.10;;;;;;;18.93;30.40;94801.84;5078899;27;96652;-60
2022/01/29 00:20:55;;;;;;;133.80;119.35;;;;;;;18.89;31.29;94814.75;5098722;27;96933;-64
2022/01/29 00:23:20;;;;;;;47.17;41.85;;;;;;;18.86;30.67;94818.25;5097366;27;99636;-65
2022/01/29 00:25:46;;;;;;;40.78;35.95;;;;;;;18.80;30.59;94814.31;5097996;27;99280;-65
2022/01/29 00:28:12;;;;;;;37.88;30.80;;;;;;;18.77;30.06;94810.41;5098154;27;96725;-66
2022/01/29 00:30:42;;;;;;;30.35;25.88;;;;;;;18.74;30.46;94815.84;5098270;27;96900;-64
2022/01/29 00:33:08;;;;;;;33.03;26.45;;;;;;;18.74;30.14;94824.03;5095894;27;99586;-66
2022/01/29 00:35:33;;;;;;;22.63;16.92;;;;;;;18.74;31.23;94829.50;5097668;27;99075;-67
2022/01/29 00:37:58;;;;;;;12.75;7.53;;;;;;;18.41;26.44;94820.34;5097696;27;96746;-68
2022/01/29 00:40:24;;;;;;;9.57;6.65;;;;;;;17.93;27.51;94821.91;5098005;27;96908;-68
2022/01/29 00:42:50;;;;;;;11.25;8.27;;;;;;;17.72;28.90;94815.09;5097239;27;99561;-73
2022/01/29 00:45:15;;;;;;;11.35;7.18;;;;;;;17.62;29.59;94815.78;5097200;27;99393;-67
2022/01/29 00:47:41;;;;;;;10.20;7.13;;;;;;;17.62;30.75;94821.25;5098005;27;97620;-64
2022/01/29 00:50:07;;;;;;;13.15;7.25;;;;;;;17.60;30.93;94812.63;5097981;27;96885;-68
2022/01/29 00:52:33;;;;;;;11.18;7.97;;;;;;;17.52;31.51;94816.44;5095066;27;100041;-64
2022/01/29 00:54:58;;;;;;;12.48;7.00;;;;;;;17.49;31.78;94813.31;5095160;27;99280;-62
2022/01/29 00:57:28;;;;;;;11.85;7.25;;;;;;;17.46;34.42;94808.59;5097960;27;96506;-63
2022/01/29 00:59:53;;;;;;;16.67;8.23;;;;;;;17.45;37.22;94796.09;5098042;27;96896;-65
2022/01/29 01:02:19;;;;;;;14.60;7.93;;;;;;;17.51;41.45;94793.03;5096993;27;99525;-65
2022/01/29 01:04:44;;;;;;;15.20;10.68;;;;;;;17.41;41.80;94792.53;5096604;27;99345;-64
2022/01/29 01:07:10;;;;;;;16.48;11.80;;;;;;;17.38;39.00;94801.47;5097326;27;97390;-67
2022/01/29 01:09:36;;;;;;;12.88;10.98;;;;;;;17.25;38.75;94803.69;5095124;27;97598;-66
2022/01/29 01:12:02;;;;;;;11.15;9.25;;;;;;;17.27;37.43;94806.84;5094219;27;99575;-67
2022/01/29 01:14:27;;;;;;;26.73;20.65;;;;;;;17.17;38.48;94802.84;5093641;27;99841;-69
2022/01/29 01:16:52;;;;;;;24.20;19.10;;;;;;;17.08;38.79;94794.16;5094225;27;97082;-65
2022/01/29 01:19:18;;;;;;;36.97;30.38;;;;;;;17.05;38.79;94805.81;5094252;27;97546;-68
2022/01/29 01:21:43;;;;;;;34.95;31.17;;;;;;;17.04;38.02;94790.59;5094516;27;99669;-64
2022/01/29 01:24:09;;;;;;;24.42;20.45;;;;;;;17.11;37.43;94787.97;5094921;27;99204;-64
2022/01/29 01:26:34;;;;;;;18.75;14.48;;;;;;;17.08;37.78;94787.91;5096318;27;101187;-65
2022/01/29 01:29:00;;;;;;;16.75;12.60;;;;;;;17.12;37.54;94784.06;5096947;27;97057;-65
2022/01/29 01:31:25;;;;;;;15.52;11.10;;;;;;;17.14;37.58;94781.75;5095971;27;99818;-62
2022/01/29 01:33:51;;;;;;;14.77;10.60;;;;;;;17.09;38.74;94778.56;5096631;27;99221;-70
2022/01/29 01:36:20;;;;;;;12.05;9.85;;;;;;;17.08;39.09;94775.06;5092960;27;96806;-63
2022/01/29 01:38:53;;;;;;;15.27;12.02;;;;;;;17.02;40.08;94773.81;5087049;27;97117;-66
2022/01/29 01:41:24;;;;;;;24.77;21.63;;;;;;;17.00;40.75;94782.38;5084822;27;99792;-65
2022/01/29 01:43:49;;;;;;;22.83;19.35;;;;;;;16.99;41.16;94799.13;5068722;27;99544;-67
2022/01/29 01:46:15;;;;;;;21.73;18.30;;;;;;;16.98;41.62;94795.63;5085142;27;96776;-65
2022/01/29 01:48:41;;;;;;;20.38;16.25;;;;;;;17.01;41.73;94805.00;5087516;27;96609;-64
2022/01/29 01:51:07;;;;;;;17.48;14.93;;;;;;;16.99;42.15;94799.91;5085984;27;100470;-61
2022/01/29 01:53:32;;;;;;;17.50;14.02;;;;;;;17.00;41.98;94803.41;5084499;27;99576;-65
2022/01/29 01:55:58;;;;;;;18.70;13.40;;;;;;;16.92;41.67;94790.81;5087050;27;96814;-64
2022/01/29 01:58:23;;;;;;;14.27;10.95;;;;;;;17.00;41.69;94803.41;5086044;27;96933;-62
2022/01/29 02:00:49;;;;;;;11.60;9.57;;;;;;;16.95;43.53;94801.00;5085263;27;99639;-61
2022/01/29 02:03:15;;;;;;;10.93;9.10;;;;;;;16.90;43.46;94789.25;5086858;27;98570;-62
2022/01/29 02:05:40;;;;;;;15.63;13.40;;;;;;;16.86;43.84;94782.97;5085792;27;96657;-62
2022/01/29 02:08:06;;;;;;;32.35;22.70;;;;;;;16.82;44.67;94792.25;5085566;27;96935;-60
2022/01/29 02:10:31;;;;;;;26.63;19.67;;;;;;;16.75;43.99;94784.78;5067960;27;97916;-63
2022/01/29 02:13:00;;;;;;;25.17;21.20;;;;;;;16.70;44.36;94794.06;5085016;27;97944;-63
2022/01/29 02:15:26;;;;;;;26.02;22.92;;;;;;;16.70;46.16;94806.94;5086088;27;96802;-63
2022/01/29 02:17:51;;;;;;;25.35;22.40;;;;;;;16.70;46.39;94804.97;5084924;27;96912;-62
2022/01/29 02:20:19;;;;;;;23.52;20.48;;;;;;;16.72;46.67;94802.66;5087147;27;99520;-63
2022/01/29 02:22:44;;;;;;;27.38;22.48;;;;;;;16.73;47.85;94812.44;5086097;27;99347;-63
2022/01/29 02:25:36;;;;;;;25.92;21.48;;;;;;;16.75;48.11;94809.34;5085341;27;96960;-63
2022/01/29 02:28:09;;;;;;;21.03;18.77;;;;;;;16.75;48.31;94814.78;5085448;27;96685;-62
2022/01/29 02:30:36;;;;;;;21.58;17.95;;;;;;;16.73;48.11;94811.66;5084144;27;99664;-63
2022/01/29 02:33:07;;;;;;;19.42;16.13;;;;;;;16.76;48.17;94808.19;5085144;27;99158;-61
2022/01/29 02:35:33;;;;;;;17.50;14.63;;;;;;;16.73;45.49;94817.09;5085249;27;96956;-64
2022/01/29 02:37:58;;;;;;;17.75;13.70;;;;;;;16.72;46.26;94819.03;5086997;27;97012;-65
2022/01/29 02:40:25;;;;;;;19.15;13.52;;;;;;;16.71;45.86;94825.66;5083578;27;98470;-61
2022/01/29 02:42:53;;;;;;;15.30;12.60;;;;;;;16.72;45.83;94815.53;5086235;27;100034;-62
2022/01/29 02:45:19;;;;;;;16.20;13.32;;;;;;;16.66;46.18;94815.06;5086882;27;96951;-60
2022/01/29 02:47:44;;;;;;;14.98;11.73;;;;;;;16.72;45.60;94804.63;5085906;27;96931;-64
2022/01/29 02:50:10;;;;;;;18.17;14.73;;;;;;;16.65;44.65;94810.75;5098988;27;99534;-63
2022/01/29 02:52:35;;;;;;;58.85;51.78;;;;;;;16.59;43.01;94814.94;5098643;27;99343;-58
2022/01/29 02:55:01;;;;;;;45.40;40.50;;;;;;;16.66;42.23;94827.91;5099875;27;96659;-59
2022/01/29 02:57:27;;;;;;;27.92;22.83;;;;;;;16.64;40.88;94830.22;5064233;27;96784;-58
2022/01/29 02:59:55;;;;;;;24.65;20.33;;;;;;;16.63;40.91;94828.66;5099545;27;97173;-59
2022/01/29 03:02:20;;;;;;;31.45;26.20;;;;;;;16.60;41.70;94822.78;5098806;27;99427;-59
2022/01/29 03:04:46;;;;;;;29.92;24.90;;;;;;;16.58;41.33;94827.81;5098359;27;96669;-59
2022/01/29 03:07:11;;;;;;;32.75;27.98;;;;;;;16.55;41.19;94828.56;5099307;27;96881;-59
2022/01/29 03:09:36;;;;;;;30.15;26.00;;;;;;;16.54;41.25;94837.88;5098742;27;98794;-59
2022/01/29 03:12:02;;;;;;;30.98;25.88;;;;;;;16.52;40.91;94833.94;5098837;27;98709;-59
2022/01/29 03:14:28;;;;;;;27.70;24.10;;;;;;;16.48;41.06;94828.44;5098892;27;97022;-58
2022/01/29 03:16:53;;;;;;;28.23;23.10;;;;;;;16.44;40.68;94824.88;5097091;27;96936;-58
2022/01/29 03:19:18;;;;;;;28.55;23.15;;;;;;;16.43;40.82;94820.59;5096275;27;100107;-59
2022/01/29 03:21:44;;;;;;;27.10;21.60;;;;;;;16.39;40.73;94825.19;5096221;27;99952;-59
2022/01/29 03:24:09;;;;;;;23.05;19.98;;;;;;;16.36;40.65;94815.81;5097125;27;96793;-58
2022/01/29 03:26:35;;;;;;;24.38;20.75;;;;;;;16.33;40.48;94810.31;5097792;27;96887;-59
2022/01/29 03:29:00;;;;;;;23.20;19.63;;;;;;;16.30;40.24;94812.63;5097465;27;99466;-59
2022/01/29 03:31:26;;;;;;;22.52;18.23;;;;;;;16.28;40.38;94809.47;5097348;27;98965;-58
2022/01/29 03:33:52;;;;;;;22.45;18.38;;;;;;;16.25;40.25;94810.19;5099265;27;96700;-58
2022/01/29 03:36:18;;;;;;;22.70;18.55;;;;;;;16.23;39.93;94809.78;5099056;27;96935;-58
2022/01/29 03:38:43;;;;;;;19.67;16.02;;;;;;;16.22;40.01;94810.16;5098588;27;99871;-59
2022/01/29 03:41:10;;;;;;;21.63;16.60;;;;;;;16.18;39.77;94810.13;5098581;27;99376;-59
2022/01/29 03:43:43;;;;;;;21.33;15.57;;;;;;;16.17;39.39;94818.66;5098984;27;96550;-58
2022/01/29 03:46:08;;;;;;;32.88;29.42;;;;;;;16.10;39.52;94797.53;5099257;27;96679;-56
2022/01/29 03:48:34;;;;;;;33.35;29.00;;;;;;;16.10;39.06;94808.44;5098255;27;99914;-57
2022/01/29 03:50:59;;;;;;;26.60;23.73;;;;;;;16.07;39.01;94809.16;5098778;27;97748;-57
2022/01/29 03:53:25;;;;;;;22.45;19.52;;;;;;;16.07;38.95;94814.63;5104230;27;98027;-58
2022/01/29 03:55:50;;;;;;;24.77;20.45;;;;;;;16.06;38.88;94813.03;5119638;27;96864;-59
2022/01/29 03:58:16;;;;;;;27.85;21.40;;;;;;;16.05;38.90;94811.47;5118469;27;99667;-56
2022/01/29 04:00:41;;;;;;;28.05;22.65;;;;;;;16.05;38.61;94811.47;5100380;27;99367;-57
2022/01/29 04:03:07;;;;;;;29.88;24.58;;;;;;;16.04;38.45;94809.91;5119691;27;96644;-58
2022/01/29 04:05:32;;;;;;;31.40;27.98;;;;;;;16.04;38.53;94809.91;5120020;27;96866;-56
2022/01/29 04:07:58;;;;;;;29.30;26.08;;;;;;;16.03;38.54;94811.03;5118764;27;99593;-57
2022/01/29 04:10:24;;;;;;;28.70;25.60;;;;;;;15.99;38.60;94811.78;5118753;27;99859;-58
2022/01/29 04:12:52;;;;;;;29.25;25.15;;;;;;;16.00;38.31;94810.63;5119257;27;96943;-57
2022/01/29 04:15:17;;;;;;;29.60;23.92;;;;;;;15.98;38.16;94798.50;5119275;27;96951;-56
2022/01/29 04:17:43;;;;;;;24.20;21.60;;;;;;;15.98;38.11;94802.03;5118627;27;99488;-58
2022/01/29 04:20:09;;;;;;;151.10;130.57;;;;;;;15.99;39.00;94795.41;5118757;27;98845;-58
2022/01/29 04:22:34;;;;;;;26.83;23.92;;;;;;;15.97;38.38;94797.72;5118310;27;97252;-58
2022/01/29 04:25:00;;;;;;;22.75;19.83;;;;;;;15.94;38.03;94801.19;5119406;27;96840;-58
2022/01/29 04:27:35;;;;;;;23.05;20.20;;;;;;;15.93;38.18;94802.31;5118293;27;99764;-58
2022/01/29 04:30:07;;;;;;;22.27;18.38;;;;;;;15.91;38.04;94812.81;5118775;27;99250;-58
2022/01/29 04:35:04;;;;;;;22.48;18.58;;;;;;;15.91;37.65;94812.81;5119177;27;96780;-58
2022/01/29 04:37:29;;;;;;;22.13;19.52;;;;;;;15.88;37.47;94808.09;5118371;27;99742;-57
2022/01/29 04:39:55;;;;;;;24.13;20.75;;;;;;;15.88;37.70;94808.09;5118621;27;99194;-59
2022/01/29 04:42:20;;;;;;;22.75;19.27;;;;;;;15.88;37.67;94805.34;5118721;27;96718;-58
2022/01/29 04:44:46;;;;;;;22.50;19.27;;;;;;;15.85;37.57;94814.22;5119289;27;97631;-56
2022/01/29 04:47:11;;;;;;;23.67;18.65;;;;;;;15.86;37.53;94815.81;5117943;27;99193;-57
2022/01/29 04:49:37;;;;;;;20.08;17.33;;;;;;;15.85;37.44;94819.69;5118143;27;99076;-58
2022/01/29 04:52:02;;;;;;;19.70;16.73;;;;;;;15.84;37.37;94823.56;5118923;27;96716;-58
2022/01/29 04:54:28;;;;;;;20.02;16.17;;;;;;;15.84;37.17;94823.56;5118512;27;96929;-58
2022/01/29 04:56:53;;;;;;;17.67;14.68;;;;;;;15.83;37.13;94822.78;5118230;27;99340;-57
2022/01/29 04:59:19;;;;;;;17.83;14.60;;;;;;;15.83;37.21;94827.44;5118152;27;99419;-57
2022/01/29 05:01:44;;;;;;;19.40;13.60;;;;;;;15.81;36.96;94818.81;5118512;27;96574;-57
2022/01/29 05:04:09;;;;;;;16.15;13.30;;;;;;;15.81;36.78;94835.16;5118451;27;96879;-58
2022/01/29 05:06:35;;;;;;;15.95;12.98;;;;;;;15.80;36.77;94828.94;5118073;27;99690;-58
2022/01/29 05:09:00;;;;;;;16.20;12.32;;;;;;;15.78;36.83;94827.72;5118010;27;99305;-54
2022/01/29 05:11:26;;;;;;;14.68;12.07;;;;;;;15.79;36.73;94827.38;5117045;27;96620;-55
2022/01/29 05:13:51;;;;;;;13.20;11.25;;;;;;;15.77;36.72;94823.44;5118798;27;96825;-57
2022/01/29 05:16:36;;;;;;;13.13;11.10;;;;;;;15.77;36.66;94826.16;5117858;27;99318;-58
2022/01/29 05:27:13;;;;;;;12.27;10.27;;;;;;;15.69;36.75;94836.91;5116481;27;97551;-57
2022/01/29 05:29:38;;;;;;;11.93;9.90;;;;;;;15.69;36.40;94834.19;5118069;27;99594;-59
2022/01/29 05:32:06;;;;;;;9.52;8.50;;;;;;;15.69;36.22;94834.19;5118649;27;97604;-57
2022/01/29 05:34:31;;;;;;;9.98;8.35;;;;;;;15.68;36.37;94832.63;5118222;27;96889;-57
2022/01/29 05:36:56;;;;;;;10.60;8.50;;;;;;;15.67;36.17;94839.22;5117188;27;99617;-57
2022/01/29 05:39:22;;;;;;;10.88;8.70;;;;;;;15.68;36.24;94843.50;5117630;27;98988;-58
2022/01/29 05:41:48;;;;;;;10.10;7.97;;;;;;;15.67;36.26;94852.84;5118025;27;96595;-58
2022/01/29 05:44:13;;;;;;;10.68;7.80;;;;;;;15.66;36.25;94839.59;5118139;27;96834;-57
2022/01/29 05:46:39;;;;;;;8.45;7.55;;;;;;;15.65;36.08;94855.13;5117545;27;99340;-57
2022/01/29 05:49:04;;;;;;;9.18;7.80;;;;;;;15.65;36.17;94857.84;5117541;27;99246;-55
2022/01/29 05:51:31;;;;;;;9.75;8.32;;;;;;;15.65;36.03;94870.69;5118319;27;97150;-58
2022/01/29 05:53:57;;;;;;;9.02;7.47;;;;;;;15.65;36.24;94871.47;5118418;27;96887;-57
2022/01/29 05:56:23;;;;;;;8.27;6.93;;;;;;;15.61;36.19;94867.13;5117543;27;99379;-58
2022/01/29 05:58:48;;;;;;;7.63;6.38;;;;;;;15.63;35.89;94868.31;5117535;27;97730;-54
2022/01/29 06:01:14;;;;;;;8.35;6.70;;;;;;;15.64;36.04;94880.00;5117390;27;96612;-57
2022/01/29 06:03:39;;;;;;;7.57;6.22;;;;;;;15.63;36.03;94881.94;5118216;27;96919;-54
2022/01/29 06:06:05;;;;;;;7.97;6.18;;;;;;;15.63;36.04;94879.22;5117389;27;99670;-54
2022/01/29 06:08:30;;;;;;;8.20;6.55;;;;;;;15.62;35.88;94883.09;5117146;27;99203;-57
2022/01/29 06:10:56;;;;;;;7.82;6.03;;;;;;;15.62;36.04;94893.97;5099039;27;96618;-57
2022/01/29 06:13:21;;;;;;;7.97;6.10;;;;;;;15.62;35.90;94893.97;5117660;27;96912;-55
2022/01/29 06:15:49;;;;;;;6.78;5.65;;;;;;;15.61;36.19;94886.19;5117273;27;100255;-55
2022/01/29 06:18:18;;;;;;;6.72;5.65;;;;;;;15.61;36.01;94892.41;5117622;27;99406;-57
2022/01/29 06:20:48;;;;;;;6.00;5.40;;;;;;;15.58;35.95;94890.44;5117499;27;96641;-53
2022/01/29 06:23:14;;;;;;;5.97;5.20;;;;;;;15.58;36.06;94882.25;5117586;27;96926;-57
2022/01/29 06:25:40;;;;;;;7.28;5.28;;;;;;;15.58;36.11;94893.16;5115674;27;99558;-58
2022/01/29 06:28:05;;;;;;;6.68;5.72;;;;;;;15.60;36.01;94896.28;5116993;27;99577;-57
2022/01/29 06:30:30;;;;;;;6.18;5.57;;;;;;;15.59;36.12;94883.84;5117728;27;96611;-55
2022/01/29 06:32:56;;;;;;;6.13;5.10;;;;;;;15.60;35.85;94896.28;5117482;27;96963;-54
2022/01/29 06:35:22;;;;;;;5.90;5.30;;;;;;;15.59;35.98;94894.72;5116817;27;99496;-57
2022/01/29 06:37:47;;;;;;;6.13;4.78;;;;;;;15.59;35.87;94892.00;5116774;27;99144;-58
2022/01/29 06:40:13;;;;;;;5.15;4.63;;;;;;;15.60;35.90;94890.06;5117414;27;96694;-57
2022/01/29 06:42:38;;;;;;;5.75;4.60;;;;;;;15.61;35.85;94902.53;5117662;27;97374;-58
2022/01/29 06:45:04;;;;;;;5.32;4.40;;;;;;;15.60;35.95;94907.19;5116654;27;99660;-58
2022/01/29 06:47:30;;;;;;;5.18;4.57;;;;;;;15.60;35.80;94914.56;5116569;27;99549;-57
2022/01/29 06:49:55;;;;;;;5.40;4.53;;;;;;;15.59;35.67;94904.81;5116790;27;96858;-57
2022/01/29 06:52:21;;;;;;;4.85;4.35;;;;;;;15.60;35.77;94907.19;5117271;27;96930;-57
2022/01/29 06:54:46;;;;;;;5.28;4.78;;;;;;;15.59;35.97;94919.22;5116591;27;97793;-57
2022/01/29 06:57:11;;;;;;;5.03;4.38;;;;;;;15.59;35.67;94912.97;5116616;27;98726;-55
2022/01/29 06:59:37;;;;;;;4.68;4.28;;;;;;;15.59;35.68;94916.50;5117059;27;96729;-58
2022/01/29 07:02:02;;;;;;;4.95;4.45;;;;;;;15.58;35.67;94920.38;5117059;27;96831;-59
2022/01/29 07:04:28;;;;;;;4.50;4.10;;;;;;;15.57;35.90;94916.06;5116803;27;98403;-58
2022/01/29 07:06:53;;;;;;;5.90;4.47;;;;;;;15.57;35.91;94918.81;5116740;27;99783;-58
2022/01/29 07:09:19;;;;;;;5.00;3.85;;;;;;;15.57;35.81;94922.28;5116966;27;96671;-59
2022/01/29 07:11:46;;;;;;;4.63;4.10;;;;;;;15.58;35.65;94928.53;5116907;27;96903;-58
2022/01/29 07:14:16;;;;;;;4.03;3.72;;;;;;;15.58;35.84;94931.28;5115923;27;99393;-58
2022/01/29 07:16:43;;;;;;;6.15;4.25;;;;;;;15.57;35.83;94929.69;5116877;27;99381;-58
2022/01/29 07:19:08;;;;;;;4.15;3.75;;;;;;;15.54;35.55;94930.41;5116842;27;96553;-58
2022/01/29 07:21:34;;;;;;;4.72;4.32;;;;;;;15.54;35.62;94938.56;5116840;27;96896;-57
2022/01/29 07:23:59;;;;;;;4.82;4.00;;;;;;;15.56;35.64;94937.06;5116236;27;99602;-59
2022/01/29 07:26:25;;;;;;;3.75;3.45;;;;;;;15.56;35.64;94942.50;5115494;27;99347;-57
2022/01/29 07:28:50;;;;;;;4.38;3.60;;;;;;;15.56;35.68;94945.22;5116356;27;96742;-58
2022/01/29 07:31:16;;;;;;;4.97;3.72;;;;;;;15.56;35.63;94944.44;5116865;27;96881;-58
2022/01/29 07:33:41;;;;;;;4.10;3.70;;;;;;;15.53;35.74;94945.16;5116292;27;99508;-57
2022/01/29 07:36:06;;;;;;;4.13;3.70;;;;;;;15.55;35.76;94943.66;5120195;27;97628;-58
2022/01/29 07:38:32;;;;;;;4.10;3.65;;;;;;;15.53;35.69;94945.16;5119767;27;96891;-57
2022/01/29 07:40:57;;;;;;;4.05;3.60;;;;;;;15.55;35.63;94949.09;5120128;27;96891;-56
2022/01/29 07:43:23;;;;;;;4.55;3.80;;;;;;;15.56;35.49;94955.34;5119604;27;99264;-59
2022/01/29 07:45:48;;;;;;;4.40;3.40;;;;;;;15.53;35.59;94961.50;5119443;27;99528;-58
2022/01/29 07:48:14;;;;;;;4.35;3.95;;;;;;;15.56;35.51;94966.22;5119989;27;96816;-57
2022/01/29 07:50:39;;;;;;;3.83;3.40;;;;;;;15.55;35.62;94962.72;5120053;27;96845;-58
2022/01/29 07:53:04;;;;;;;4.13;3.70;;;;;;;15.55;35.50;94956.50;5119556;27;98978;-57
2022/01/29 07:55:30;;;;;;;3.58;3.22;;;;;;;15.55;35.46;94961.94;5119647;27;99262;-58
2022/01/29 07:57:57;;;;;;;3.90;3.40;;;;;;;15.53;35.47;94961.50;5119879;27;96674;-59
2022/01/29 08:00:22;;;;;;;4.45;3.53;;;;;;;15.55;35.36;94978.28;5119858;27;96871;-57
2022/01/29 08:02:48;;;;;;;4.63;3.67;;;;;;;15.54;35.37;94982.13;5118786;27;99832;-58
2022/01/29 08:05:13;;;;;;;3.85;3.40;;;;;;;15.56;35.49;94977.13;5119460;27;99681;-57
2022/01/29 08:07:38;;;;;;;4.63;3.60;;;;;;;15.55;35.33;94973.59;5120303;27;97652;-58
2022/01/29 08:10:05;;;;;;;4.18;3.78;;;;;;;15.55;35.43;94983.72;5100977;27;96983;-58
2022/01/29 08:12:31;;;;;;;3.83;3.38;;;;;;;15.56;35.39;94979.84;5118884;27;99684;-58
2022/01/29 08:14:56;;;;;;;3.97;3.58;;;;;;;15.54;35.45;94984.88;5119122;27;99125;-57
2022/01/29 08:17:22;;;;;;;4.03;3.63;;;;;;;15.56;35.45;94982.56;5119438;27;97078;-57
2022/01/29 08:19:49;;;;;;;3.92;3.53;;;;;;;15.54;35.54;94979.41;5119910;27;96959;-59
2022/01/29 08:22:15;;;;;;;3.60;3.30;;;;;;;15.45;35.45;94962.50;5118907;27;99416;-58
2022/01/29 08:24:41;;;;;;;3.97;3.45;;;;;;;15.55;35.63;94981.00;5118894;27;100286;-58
2022/01/29 08:27:06;;;;;;;3.88;3.50;;;;;;;15.52;35.38;94981.72;5118085;27;96811;-57
2022/01/29 08:29:32;;;;;;;3.88;3.50;;;;;;;15.56;35.70;94985.28;5119601;27;96895;-58
2022/01/29 08:31:57;;;;;;;3.60;3.28;;;;;;;15.56;35.30;94982.56;5118903;27;99024;-58
2022/01/29 08:34:23;;;;;;;3.28;2.97;;;;;;;15.57;35.33;94989.59;5118777;27;98902;-58
2022/01/29 08:36:49;;;;;;;3.60;3.30;;;;;;;15.57;35.50;94989.59;5119322;27;96788;-58
2022/01/29 08:39:14;;;;;;;4.40;3.47;;;;;;;15.57;35.24;94984.16;5119221;27;96916;-58
2022/01/29 08:41:40;;;;;;;3.85;3.40;;;;;;;15.58;35.13;94985.72;5118510;27;99565;-57
2022/01/29 08:44:05;;;;;;;3.50;3.20;;;;;;;15.58;35.64;94996.63;5118937;27;99474;-56
2022/01/29 08:46:31;;;;;;;4.55;3.45;;;;;;;15.58;35.59;94985.72;5119415;27;96725;-58
2022/01/29 08:48:56;;;;;;;3.80;3.40;;;;;;;15.58;35.08;95002.06;5100479;27;96901;-57
2022/01/29 08:51:22;;;;;;;3.83;3.30;;;;;;;15.56;35.46;94990.75;5118122;27;99468;-58
2022/01/29 08:53:47;;;;;;;3.50;3.20;;;;;;;15.59;35.35;94990.03;5118516;27;99513;-58
2022/01/29 08:56:15;;;;;;;3.47;3.20;;;;;;;15.59;35.33;95000.91;5118927;27;96600;-58
2022/01/29 08:58:41;;;;;;;3.45;3.10;;;;;;;15.59;35.34;94998.19;5119005;27;96943;-59
2022/01/29 09:01:07;;;;;;;3.60;3.30;;;;;;;15.56;35.55;94993.47;5118351;27;99472;-58
2022/01/29 09:03:33;;;;;;;3.97;3.30;;;;;;;15.61;35.52;94998.59;5118476;27;99636;-57
2022/01/29 09:05:59;;;;;;;4.25;3.50;;;;;;;15.60;35.46;95002.50;5118964;27;96606;-58
2022/01/29 09:08:24;;;;;;;3.45;3.15;;;;;;;15.62;35.37;94999.41;5119009;27;96714;-57
2022/01/29 09:10:50;;;;;;;5.47;3.28;;;;;;;15.63;35.68;95009.91;5118210;27;99455;-57
2022/01/29 09:13:16;;;;;;;4.18;3.42;;;;;;;15.62;35.95;95008.34;5118238;27;99693;-58
2022/01/29 09:15:41;;;;;;;3.70;3.22;;;;;;;15.62;35.42;95013.00;5118164;27;96802;-57
2022/01/29 09:18:07;;;;;;;4.55;3.35;;;;;;;15.64;35.41;95008.00;5118579;27;96878;-57
2022/01/29 09:20:32;;;;;;;3.83;3.17;;;;;;;15.65;35.54;95007.63;5117812;27;99475;-58
2022/01/29 09:22:58;;;;;;;3.53;3.08;;;;;;;15.64;35.48;95000.59;5118065;27;99632;-59
2022/01/29 09:25:25;;;;;;;4.13;3.70;;;;;;;15.64;35.26;95006.06;5118561;27;96828;-58
2022/01/29 09:27:50;;;;;;;3.47;3.17;;;;;;;15.65;35.25;95006.84;5118031;27;98012;-58
2022/01/29 09:30:16;;;;;;;3.88;3.28;;;;;;;15.65;35.32;94995.97;5117845;27;99981;-57
2022/01/29 09:32:41;;;;;;;3.65;3.35;;;;;;;15.64;35.34;94994.38;5118209;27;99600;-56
2022/01/29 09:35:07;;;;;;;4.43;3.03;;;;;;;15.65;35.49;94995.97;5118543;27;96892;-56
2022/01/29 09:37:33;;;;;;;3.58;3.22;;;;;;;15.64;35.28;95000.59;5118407;27;96648;-58
2022/01/29 09:39:58;;;;;;;3.70;3.40;;;;;;;15.64;35.52;94999.84;5117252;27;99301;-56
2022/01/29 09:42:24;;;;;;;3.65;3.33;;;;;;;15.59;35.37;94991.94;5117522;27;99544;-59
2022/01/29 09:44:52;;;;;;;3.20;2.90;;;;;;;15.62;35.42;95002.91;5099609;27;96634;-58
2022/01/29 09:47:17;;;;;;;4.50;3.53;;;;;;;15.62;35.29;95008.34;5118166;27;97020;-57
2022/01/29 09:49:43;;;;;;;4.55;3.50;;;;;;;15.62;35.34;95000.19;5117645;27;100199;-56
2022/01/29 09:52:08;;;;;;;3.72;3.15;;;;;;;15.57;35.28;94990.38;5098587;27;99832;-57
2022/01/29 09:54:34;;;;;;;3.85;3.40;;;;;;;15.62;35.22;94999.41;5117800;27;96977;-57
2022/01/29 09:56:59;;;;;;;4.05;3.60;;;;;;;15.61;35.04;95006.75;5117959;27;96815;-58
2022/01/29 09:59:25;;;;;;;3.85;3.20;;;;;;;15.61;35.12;95001.31;5117422;27;99350;-58
2022/01/29 10:01:50;;;;;;;4.50;3.45;;;;;;;15.62;35.29;95013.78;5117664;27;97822;-58
2022/01/29 10:04:16;;;;;;;4.15;3.38;;;;;;;15.61;35.48;95006.75;5117871;27;96578;-58
2022/01/29 10:06:44;;;;;;;3.70;3.30;;;;;;;15.61;35.66;95000.53;5117780;27;96905;-58
2022/01/29 10:09:12;;;;;;;4.03;3.03;;;;;;;15.62;35.21;95000.19;5117307;27;99175;-57
2022/01/29 10:11:38;;;;;;;3.80;3.50;;;;;;;15.59;35.19;94998.19;5117186;27;99726;-58
2022/01/29 10:14:04;;;;;;;4.13;3.60;;;;;;;15.63;35.25;95006.41;5118169;27;96684;-58
2022/01/29 10:16:31;;;;;;;3.67;3.35;;;;;;;15.60;35.55;94993.53;5117645;27;96862;-58
2022/01/29 10:19:12;;;;;;;4.10;3.70;;;;;;;15.62;35.54;94997.44;5117493;27;97818;-57
2022/01/29 10:21:42;;;;;;;3.58;3.20;;;;;;;15.63;35.73;94993.59;5117580;27;100090;-58
2022/01/29 10:24:09;;;;;;;4.40;3.63;;;;;;;15.60;35.57;94999.78;5117585;27;96775;-58
2022/01/29 10:26:38;;;;;;;4.05;3.40;;;;;;;15.60;35.71;95002.50;5116783;27;96888;-58
2022/01/29 10:29:07;;;;;;;3.58;3.17;;;;;;;15.61;35.50;94998.59;5116734;27;99379;-59
2022/01/29 10:31:46;;;;;;;3.60;3.30;;;;;;;15.63;35.75;94999.03;5116974;27;99392;-56
2022/01/29 10:34:33;;;;;;;3.72;3.30;;;;;;;15.62;35.29;95013.78;5117653;27;96715;-57
2022/01/29 10:37:15;;;;;;;3.78;3.35;;;;;;;15.62;35.23;95008.34;5117692;27;96732;-58
2022/01/29 10:39:41;;;;;;;4.43;3.60;;;;;;;15.61;35.48;95012.22;5116878;27;99977;-57
2022/01/29 10:42:27;;;;;;;3.58;3.28;;;;;;;15.58;35.41;94991.16;5117006;27;99623;-58
2022/01/29 10:44:57;;;;;;;5.45;3.15;;;;;;;15.58;35.11;95002.06;5117473;27;96665;-57
2022/01/29 10:47:22;;;;;;;4.00;3.10;;;;;;;15.61;35.00;95001.31;5117660;27;97014;-57
2022/01/29 10:49:59;;;;;;;4.70;3.40;;;;;;;15.62;35.30;95013.00;5116811;27;99112;-57
2022/01/29 10:52:34;;;;;;;3.83;3.50;;;;;;;15.58;35.33;94996.63;5116946;27;99421;-57
2022/01/29 10:55:07;;;;;;;3.50;3.20;;;;;;;15.60;35.28;95005.22;5116746;27;96668;-58
2022/01/29 10:57:46;;;;;;;4.68;3.70;;;;;;;15.60;35.32;95005.22;5116966;27;96893;-58
2022/01/29 11:00:21;;;;;;;4.15;3.42;;;;;;;15.61;35.28;95014.16;5116570;27;99570;-57
2022/01/29 11:02:48;;;;;;;3.70;3.40;;;;;;;15.60;35.02;95021.56;5116343;27;99450;-57
2022/01/29 11:05:14;;;;;;;4.53;3.67;;;;;;;15.60;34.92;95016.13;5117199;27;96613;-56
2022/01/29 11:07:41;;;;;;;5.50;3.50;;;;;;;15.60;35.24;94999.78;5116919;27;96911;-58
2022/01/29 11:10:07;;;;;;;3.40;3.10;;;;;;;15.60;35.28;95015.31;5119045;27;99729;-57
2022/01/29 11:12:33;;;;;;;4.25;3.85;;;;;;;15.60;35.09;95005.22;5120486;27;100498;-58
2022/01/29 11:14:59;;;;;;;3.80;3.30;;;;;;;15.61;35.23;95000.53;5120622;27;96606;-57
2022/01/29 11:17:31;;;;;;;3.58;3.22;;;;;;;15.57;35.02;94990.38;5120834;27;96917;-58
2022/01/29 11:19:57;;;;;;;3.80;3.50;;;;;;;15.60;34.96;94994.31;5119643;27;98184;-59
2022/01/29 11:22:28;;;;;;;4.00;3.65;;;;;;;15.60;35.24;94988.06;5119960;27;98990;-58
2022/01/29 11:25:01;;;;;;;3.72;3.30;;;;;;;15.47;35.06;94963.72;5102247;27;96821;-57
2022/01/29 11:27:31;;;;;;;5.38;3.85;;;;;;;15.56;35.05;94980.63;5102003;27;97499;-58
2022/01/29 11:30:08;;;;;;;4.15;3.40;;;;;;;15.60;34.94;94988.88;5119901;27;101079;-58
2022/01/29 11:32:40;;;;;;;3.83;3.42;;;;;;;15.59;35.20;94984.56;5120009;27;99449;-58
2022/01/29 11:35:21;;;;;;;4.17;3.77;;;;;;;15.57;35.08;94984.91;5120317;27;96756;-57